createdAt,value
2022-10-14T00:00:38.821Z,937.76
2022-10-14T00:01:38.947Z,937.73
2022-10-14T00:02:38.853Z,937.72
2022-10-14T00:03:38.876Z,937.72
2022-10-14T00:04:38.884Z,937.73
2022-10-14T00:05:38.903Z,937.81
2022-10-14T00:06:38.921Z,937.78
2022-10-14T00:07:39.337Z,937.81
2022-10-14T00:08:38.949Z,937.81
2022-10-14T00:09:38.967Z,937.85
2022-10-14T00:10:38.985Z,937.86
2022-10-14T00:11:38.999Z,937.83
2022-10-14T00:12:39.012Z,937.84
2022-10-14T00:13:39.041Z,937.87
2022-10-14T00:14:39.045Z,937.91
2022-10-14T00:15:39.065Z,937.85
2022-10-14T00:16:39.077Z,937.78
2022-10-14T00:17:39.109Z,937.78
2022-10-14T00:18:39.120Z,937.77
2022-10-14T00:19:39.125Z,937.79
2022-10-14T00:20:39.140Z,937.75
2022-10-14T00:21:39.157Z,937.70
2022-10-14T00:22:39.174Z,937.71
2022-10-14T00:23:39.191Z,937.66
2022-10-14T00:24:39.204Z,937.63
2022-10-14T00:25:39.220Z,937.64
2022-10-14T00:26:39.236Z,937.66
2022-10-14T00:27:39.255Z,937.75
2022-10-14T00:28:39.336Z,937.77
2022-10-14T00:29:39.285Z,937.78
2022-10-14T00:30:39.301Z,937.90
2022-10-14T00:31:39.317Z,937.95
2022-10-14T00:32:39.332Z,938.00
2022-10-14T00:33:39.365Z,938.03
2022-10-14T00:34:39.365Z,938.05
2022-10-14T00:35:39.383Z,938.09
2022-10-14T00:36:39.395Z,938.07
2022-10-14T00:37:39.412Z,938.05
2022-10-14T00:38:39.426Z,938.02
2022-10-14T00:39:39.442Z,938.01
2022-10-14T00:40:39.459Z,937.98
2022-10-14T00:41:39.476Z,937.97
2022-10-14T00:42:39.490Z,937.98
2022-10-14T00:43:39.506Z,937.97
2022-10-14T00:44:39.522Z,937.97
2022-10-14T00:45:39.538Z,937.93
2022-10-14T00:46:39.555Z,937.92
2022-10-14T00:47:39.570Z,937.88
2022-10-14T00:48:39.585Z,937.90
2022-10-14T00:49:39.621Z,937.92
2022-10-14T00:50:39.618Z,937.93
2022-10-14T00:51:39.642Z,937.94
2022-10-14T00:52:39.648Z,937.92
2022-10-14T00:53:39.666Z,937.93
2022-10-14T00:54:39.681Z,937.97
2022-10-14T00:55:39.698Z,937.95
2022-10-14T00:56:39.728Z,938.03
2022-10-14T00:57:39.729Z,938.06
2022-10-14T00:58:39.744Z,938.10
2022-10-14T00:59:39.763Z,938.07
2022-10-14T01:00:39.880Z,938.07
2022-10-14T01:01:39.794Z,938.08
2022-10-14T01:02:39.807Z,938.07
2022-10-14T01:03:39.823Z,938.04
2022-10-14T01:04:39.840Z,938.08
2022-10-14T01:05:39.875Z,938.06
2022-10-14T01:06:39.873Z,938.03
2022-10-14T01:07:39.888Z,938.10
2022-10-14T01:08:39.903Z,938.12
2022-10-14T01:09:39.917Z,938.13
2022-10-14T01:10:39.935Z,938.14
2022-10-14T01:11:39.951Z,938.16
2022-10-14T01:12:39.965Z,938.17
2022-10-14T01:13:39.980Z,938.20
2022-10-14T01:14:39.999Z,938.21
2022-10-14T01:15:40.014Z,938.21
2022-10-14T01:16:40.437Z,938.19
2022-10-14T01:17:40.045Z,938.20
2022-10-14T01:18:40.059Z,938.18
2022-10-14T01:19:40.076Z,938.19
2022-10-14T01:20:40.096Z,938.21
2022-10-14T01:21:40.127Z,938.22
2022-10-14T01:22:40.124Z,938.22
2022-10-14T01:23:40.141Z,938.25
2022-10-14T01:24:40.153Z,938.18
2022-10-14T01:25:40.170Z,938.20
2022-10-14T01:26:40.188Z,938.17
2022-10-14T01:27:40.204Z,938.17
2022-10-14T01:28:40.289Z,938.19
2022-10-14T01:29:40.234Z,938.16
2022-10-14T01:30:40.248Z,938.19
2022-10-14T01:31:40.270Z,938.15
2022-10-14T01:32:40.280Z,938.17
2022-10-14T01:33:40.297Z,938.11
2022-10-14T01:34:40.314Z,938.11
2022-10-14T01:35:40.329Z,938.08
2022-10-14T01:36:40.344Z,938.06
2022-10-14T01:37:40.378Z,938.03
2022-10-14T01:38:40.385Z,938.05
2022-10-14T01:39:40.392Z,938.02
2022-10-14T01:40:40.407Z,938.04
2022-10-14T01:41:40.423Z,938.06
2022-10-14T01:42:40.443Z,938.10
2022-10-14T01:43:40.455Z,938.05
2022-10-14T01:44:40.469Z,938.03
2022-10-14T01:45:40.485Z,938.02
2022-10-14T01:46:40.503Z,938.01
2022-10-14T01:47:40.720Z,938.01
2022-10-14T01:48:40.533Z,937.95
2022-10-14T01:49:40.548Z,937.93
2022-10-14T01:50:40.565Z,937.94
2022-10-14T01:51:40.580Z,937.86
2022-10-14T01:52:40.596Z,937.87
2022-10-14T01:53:40.631Z,937.88
2022-10-14T01:54:40.628Z,937.87
2022-10-14T01:55:40.644Z,937.89
2022-10-14T01:56:40.944Z,937.88
2022-10-14T01:57:40.686Z,937.89
2022-10-14T01:58:40.691Z,937.90
2022-10-14T01:59:40.708Z,937.93
2022-10-14T02:00:40.721Z,937.88
2022-10-14T02:01:40.817Z,937.90
2022-10-14T02:02:40.754Z,937.93
2022-10-14T02:03:40.772Z,937.91
2022-10-14T02:04:40.786Z,937.93
2022-10-14T02:05:40.801Z,937.92
2022-10-14T02:06:40.818Z,937.92
2022-10-14T02:07:40.832Z,937.95
2022-10-14T02:08:40.849Z,937.89
2022-10-14T02:09:40.883Z,937.85
2022-10-14T02:10:40.878Z,937.79
2022-10-14T02:11:40.895Z,937.79
2022-10-14T02:12:40.910Z,937.81
2022-10-14T02:13:40.933Z,937.81
2022-10-14T02:14:40.941Z,937.80
2022-10-14T02:15:40.961Z,937.81
2022-10-14T02:16:40.973Z,937.78
2022-10-14T02:17:40.989Z,937.72
2022-10-14T02:18:41.003Z,937.74
2022-10-14T02:19:41.022Z,937.68
2022-10-14T02:20:41.035Z,937.66
2022-10-14T02:21:41.054Z,937.66
2022-10-14T02:22:41.067Z,937.59
2022-10-14T02:23:41.083Z,937.62
2022-10-14T02:24:41.098Z,937.58
2022-10-14T02:25:41.131Z,937.62
2022-10-14T02:26:41.129Z,937.59
2022-10-14T02:27:41.144Z,937.57
2022-10-14T02:28:41.292Z,937.56
2022-10-14T02:29:41.177Z,937.54
2022-10-14T02:30:41.192Z,937.51
2022-10-14T02:31:41.208Z,937.49
2022-10-14T02:32:41.222Z,937.46
2022-10-14T02:33:41.237Z,937.44
2022-10-14T02:34:41.254Z,937.46
2022-10-14T02:35:41.271Z,937.45
2022-10-14T02:36:41.286Z,937.41
2022-10-14T02:37:41.304Z,937.43
2022-10-14T02:38:41.319Z,937.40
2022-10-14T02:39:41.331Z,937.37
2022-10-14T02:40:41.346Z,937.39
2022-10-14T02:41:41.383Z,937.36
2022-10-14T02:42:41.377Z,937.34
2022-10-14T02:43:41.393Z,937.33
2022-10-14T02:44:41.412Z,937.31
2022-10-14T02:45:41.455Z,937.34
2022-10-14T02:46:41.441Z,937.28
2022-10-14T02:47:41.458Z,937.32
2022-10-14T02:48:41.470Z,937.32
2022-10-14T02:49:41.489Z,937.26
2022-10-14T02:50:41.504Z,937.27
2022-10-14T02:51:41.519Z,937.24
2022-10-14T02:52:41.534Z,937.18
2022-10-14T02:53:41.552Z,937.22
2022-10-14T02:54:41.565Z,937.24
2022-10-14T02:55:41.581Z,937.26
2022-10-14T02:56:41.596Z,937.26
2022-10-14T02:57:41.631Z,937.27
2022-10-14T02:58:41.628Z,937.23
2022-10-14T02:59:41.642Z,937.23
2022-10-14T03:00:41.658Z,937.25
2022-10-14T03:01:41.711Z,937.22
2022-10-14T03:02:41.692Z,937.27
2022-10-14T03:03:41.708Z,937.22
2022-10-14T03:04:41.719Z,937.23
2022-10-14T03:05:41.737Z,937.18
2022-10-14T03:06:41.753Z,937.14
2022-10-14T03:07:41.768Z,937.13
2022-10-14T03:08:41.784Z,937.11
2022-10-14T03:09:41.798Z,937.09
2022-10-14T03:10:41.814Z,937.07
2022-10-14T03:11:41.831Z,937.07
2022-10-14T03:12:41.844Z,937.09
2022-10-14T03:13:41.881Z,937.07
2022-10-14T03:14:41.875Z,937.10
2022-10-14T03:15:41.892Z,937.06
2022-10-14T03:16:41.908Z,937.02
2022-10-14T03:17:41.922Z,937.00
2022-10-14T03:18:41.940Z,937.04
2022-10-14T03:19:41.954Z,937.03
2022-10-14T03:20:41.971Z,937.00
2022-10-14T03:21:41.986Z,937.01
2022-10-14T03:22:42.003Z,937.00
2022-10-14T03:23:42.024Z,936.97
2022-10-14T03:24:42.031Z,937.03
2022-10-14T03:25:42.048Z,937.02
2022-10-14T03:26:42.064Z,936.99
2022-10-14T03:27:42.081Z,937.02
2022-10-14T03:28:42.153Z,937.02
2022-10-14T03:29:42.128Z,937.00
2022-10-14T03:30:42.127Z,937.00
2022-10-14T03:31:42.140Z,937.03
2022-10-14T03:32:42.156Z,937.00
2022-10-14T03:33:42.170Z,937.06
2022-10-14T03:34:42.186Z,937.00
2022-10-14T03:35:42.203Z,937.03
2022-10-14T03:36:42.217Z,937.02
2022-10-14T03:37:42.232Z,937.02
2022-10-14T03:38:42.248Z,936.99
2022-10-14T03:39:42.265Z,937.01
2022-10-14T03:40:42.282Z,936.99
2022-10-14T03:41:42.295Z,937.00
2022-10-14T03:42:42.317Z,937.01
2022-10-14T03:43:42.328Z,936.95
2022-10-14T03:44:42.343Z,936.97
2022-10-14T03:45:42.376Z,936.98
2022-10-14T03:46:42.373Z,936.99
2022-10-14T03:47:42.488Z,936.93
2022-10-14T03:48:42.403Z,936.96
2022-10-14T03:49:42.418Z,936.90
2022-10-14T03:50:42.434Z,936.88
2022-10-14T03:51:42.455Z,936.91
2022-10-14T03:52:46.474Z,936.89
2022-10-14T03:53:42.481Z,936.89
2022-10-14T03:54:42.496Z,936.85
2022-10-14T03:55:42.531Z,936.85
2022-10-14T03:56:42.527Z,936.83
2022-10-14T03:57:42.546Z,936.84
2022-10-14T03:58:42.557Z,936.77
2022-10-14T03:59:42.573Z,936.77
2022-10-14T04:00:42.589Z,936.79
2022-10-14T04:01:42.694Z,936.78
2022-10-14T04:02:42.624Z,936.79
2022-10-14T04:03:42.635Z,936.77
2022-10-14T04:04:42.651Z,936.72
2022-10-14T04:05:42.666Z,936.70
2022-10-14T04:06:42.682Z,936.66
2022-10-14T04:07:42.698Z,936.65
2022-10-14T04:08:42.710Z,936.63
2022-10-14T04:09:42.726Z,936.62
2022-10-14T04:10:42.742Z,936.62
2022-10-14T04:11:42.769Z,936.62
2022-10-14T04:13:42.788Z,936.61
2022-10-14T04:14:42.803Z,936.58
2022-10-14T04:15:42.820Z,936.59
2022-10-14T04:16:46.067Z,936.56
2022-10-14T04:17:42.870Z,936.54
2022-10-14T04:18:42.868Z,936.55
2022-10-14T04:19:42.881Z,936.51
2022-10-14T04:20:42.895Z,936.49
2022-10-14T04:21:42.912Z,936.50
2022-10-14T04:22:42.929Z,936.46
2022-10-14T04:23:42.941Z,936.42
2022-10-14T04:24:42.956Z,936.39
2022-10-14T04:25:42.974Z,936.40
2022-10-14T04:26:42.989Z,936.39
2022-10-14T04:27:43.006Z,936.39
2022-10-14T04:28:43.094Z,936.37
2022-10-14T04:29:43.035Z,936.38
2022-10-14T04:30:43.051Z,936.39
2022-10-14T04:31:43.065Z,936.40
2022-10-14T04:32:43.081Z,936.40
2022-10-14T04:33:43.114Z,936.37
2022-10-14T04:34:43.111Z,936.37
2022-10-14T04:35:43.126Z,936.38
2022-10-14T04:36:43.142Z,936.39
2022-10-14T04:37:43.155Z,936.40
2022-10-14T04:38:43.173Z,936.35
2022-10-14T04:39:43.188Z,936.38
2022-10-14T04:40:43.207Z,936.37
2022-10-14T04:41:43.220Z,936.33
2022-10-14T04:42:43.236Z,936.37
2022-10-14T04:43:43.250Z,936.39
2022-10-14T04:44:43.263Z,936.33
2022-10-14T04:45:43.281Z,936.31
2022-10-14T04:46:43.295Z,936.30
2022-10-14T04:47:48.319Z,936.30
2022-10-14T04:48:43.332Z,936.32
2022-10-14T04:49:43.360Z,936.28
2022-10-14T04:50:43.355Z,936.28
2022-10-14T04:51:43.371Z,936.23
2022-10-14T04:52:43.386Z,936.23
2022-10-14T04:53:43.402Z,936.20
2022-10-14T04:54:43.417Z,936.22
2022-10-14T04:55:43.433Z,936.22
2022-10-14T04:56:43.447Z,936.22
2022-10-14T04:57:43.465Z,936.27
2022-10-14T04:58:43.478Z,936.27
2022-10-14T04:59:43.494Z,936.24
2022-10-14T05:00:43.507Z,936.24
2022-10-14T05:01:43.598Z,936.24
2022-10-14T05:02:43.539Z,936.26
2022-10-14T05:03:43.555Z,936.23
2022-10-14T05:04:43.570Z,936.24
2022-10-14T05:05:43.603Z,936.20
2022-10-14T05:06:43.601Z,936.21
2022-10-14T05:07:43.617Z,936.18
2022-10-14T05:08:43.631Z,936.13
2022-10-14T05:09:48.282Z,936.15
2022-10-14T05:10:43.661Z,936.11
2022-10-14T05:11:43.676Z,936.10
2022-10-14T05:12:43.691Z,936.06
2022-10-14T05:13:43.707Z,936.05
2022-10-14T05:14:43.726Z,936.06
2022-10-14T05:15:43.740Z,936.09
2022-10-14T05:16:43.752Z,936.08
2022-10-14T05:17:43.770Z,936.10
2022-10-14T05:18:43.784Z,936.09
2022-10-14T05:19:43.798Z,936.09
2022-10-14T05:20:43.812Z,936.09
2022-10-14T05:21:43.847Z,936.10
2022-10-14T05:22:43.844Z,936.09
2022-10-14T05:23:43.861Z,936.09
2022-10-14T05:24:43.875Z,936.09
2022-10-14T05:25:43.891Z,936.07
2022-10-14T05:26:43.905Z,936.07
2022-10-14T05:27:43.922Z,936.05
2022-10-14T05:28:44.002Z,936.03
2022-10-14T05:29:43.951Z,936.03
2022-10-14T05:30:43.967Z,936.00
2022-10-14T05:31:43.996Z,935.99
2022-10-14T05:32:44.006Z,936.00
2022-10-14T05:33:44.013Z,936.00
2022-10-14T05:34:44.034Z,935.97
2022-10-14T05:35:58.720Z,935.99
2022-10-14T05:36:44.059Z,935.97
2022-10-14T05:37:44.094Z,935.95
2022-10-14T05:38:44.089Z,935.96
2022-10-14T05:39:44.105Z,935.96
2022-10-14T05:40:44.120Z,935.99
2022-10-14T05:41:44.136Z,935.98
2022-10-14T05:42:44.150Z,935.98
2022-10-14T05:43:44.166Z,935.96
2022-10-14T05:44:44.180Z,936.01
2022-10-14T05:45:44.194Z,935.97
2022-10-14T05:46:44.212Z,935.94
2022-10-14T05:47:44.226Z,935.93
2022-10-14T05:48:44.240Z,935.90
2022-10-14T05:49:44.255Z,935.94
2022-10-14T05:50:44.271Z,935.91
2022-10-14T05:51:44.286Z,935.89
2022-10-14T05:52:44.302Z,935.89
2022-10-14T05:53:44.334Z,935.90
2022-10-14T05:54:44.331Z,935.93
2022-10-14T05:55:44.348Z,935.92
2022-10-14T05:56:44.361Z,935.95
2022-10-14T05:57:44.381Z,935.95
2022-10-14T05:58:44.393Z,935.96
2022-10-14T05:59:44.406Z,935.97
2022-10-14T06:00:44.423Z,936.01
2022-10-14T06:01:44.437Z,936.04
2022-10-14T06:02:44.510Z,936.01
2022-10-14T06:03:44.467Z,936.07
2022-10-14T06:04:44.482Z,936.12
2022-10-14T06:05:44.498Z,936.09
2022-10-14T06:06:44.514Z,936.10
2022-10-14T06:07:44.529Z,936.11
2022-10-14T06:08:44.545Z,936.12
2022-10-14T06:09:44.654Z,936.10
2022-10-14T06:10:44.574Z,936.12
2022-10-14T06:11:44.590Z,936.15
2022-10-14T06:12:44.603Z,936.14
2022-10-14T06:13:44.621Z,936.15
2022-10-14T06:14:44.635Z,936.17
2022-10-14T06:15:44.651Z,936.18
2022-10-14T06:16:44.664Z,936.16
2022-10-14T06:17:44.680Z,936.21
2022-10-14T06:18:44.697Z,936.26
2022-10-14T06:19:44.711Z,936.23
2022-10-14T06:20:44.727Z,936.30
2022-10-14T06:21:44.751Z,936.30
2022-10-14T06:22:44.757Z,936.32
2022-10-14T06:23:44.771Z,936.30
2022-10-14T06:24:44.786Z,936.35
2022-10-14T06:25:44.819Z,936.35
2022-10-14T06:26:44.817Z,936.38
2022-10-14T06:27:44.832Z,936.37
2022-10-14T06:28:44.928Z,936.38
2022-10-14T06:29:44.862Z,936.37
2022-10-14T06:30:44.877Z,936.41
2022-10-14T06:31:44.893Z,936.35
2022-10-14T06:32:44.908Z,936.36
2022-10-14T06:33:44.923Z,936.38
2022-10-14T06:34:44.937Z,936.35
2022-10-14T06:35:44.952Z,936.35
2022-10-14T06:36:44.967Z,936.33
2022-10-14T06:37:44.983Z,936.33
2022-10-14T06:38:44.998Z,936.33
2022-10-14T06:39:45.063Z,936.30
2022-10-14T06:40:45.029Z,936.35
2022-10-14T06:41:45.060Z,936.37
2022-10-14T06:42:45.058Z,936.35
2022-10-14T06:43:45.072Z,936.39
2022-10-14T06:44:45.089Z,936.35
2022-10-14T06:45:45.105Z,936.36
2022-10-14T06:46:45.120Z,936.34
2022-10-14T06:47:45.134Z,936.31
2022-10-14T06:48:50.014Z,936.29
2022-10-14T06:49:45.162Z,936.29
2022-10-14T06:50:45.178Z,936.30
2022-10-14T06:51:45.194Z,936.34
2022-10-14T06:52:45.210Z,936.34
2022-10-14T06:53:45.324Z,936.35
2022-10-14T06:54:48.257Z,936.35
2022-10-14T06:55:45.254Z,936.39
2022-10-14T06:56:45.270Z,936.35
2022-10-14T06:57:45.303Z,936.40
2022-10-14T06:58:45.301Z,936.41
2022-10-14T06:59:45.315Z,936.39
2022-10-14T07:00:48.129Z,936.45
2022-10-14T07:01:45.377Z,936.43
2022-10-14T07:02:45.358Z,936.46
2022-10-14T07:03:45.375Z,936.42
2022-10-14T07:04:45.389Z,936.45
2022-10-14T07:05:45.404Z,936.45
2022-10-14T07:06:45.419Z,936.44
2022-10-14T07:07:45.440Z,936.41
2022-10-14T07:08:45.449Z,936.42
2022-10-14T07:09:45.463Z,936.44
2022-10-14T07:10:45.479Z,936.43
2022-10-14T07:11:45.493Z,936.45
2022-10-14T07:12:45.509Z,936.47
2022-10-14T07:13:45.541Z,936.43
2022-10-14T07:14:45.540Z,936.44
2022-10-14T07:15:45.555Z,936.47
2022-10-14T07:16:45.570Z,936.49
2022-10-14T07:17:46.237Z,936.49
2022-10-14T07:18:45.598Z,936.49
2022-10-14T07:19:45.614Z,936.51
2022-10-14T07:20:45.630Z,936.54
2022-10-14T07:21:45.643Z,936.52
2022-10-14T07:22:45.658Z,936.53
2022-10-14T07:23:45.673Z,936.56
2022-10-14T07:24:45.692Z,936.55
2022-10-14T07:25:45.702Z,936.53
2022-10-14T07:26:45.718Z,936.58
2022-10-14T07:27:45.735Z,936.55
2022-10-14T07:28:45.809Z,936.59
2022-10-14T07:29:45.781Z,936.65
2022-10-14T07:30:45.782Z,936.63
2022-10-14T07:31:45.794Z,936.65
2022-10-14T07:32:45.808Z,936.66
2022-10-14T07:33:45.825Z,936.64
2022-10-14T07:34:45.839Z,936.71
2022-10-14T07:35:45.866Z,936.70
2022-10-14T07:36:45.868Z,936.68
2022-10-14T07:37:45.883Z,936.69
2022-10-14T07:38:45.899Z,936.66
2022-10-14T07:39:45.912Z,936.68
2022-10-14T07:40:45.933Z,936.69
2022-10-14T07:41:45.945Z,936.68
2022-10-14T07:42:45.958Z,936.69
2022-10-14T07:43:45.974Z,936.71
2022-10-14T07:44:45.990Z,936.71
2022-10-14T07:45:46.038Z,936.71
2022-10-14T07:46:46.018Z,936.75
2022-10-14T07:47:46.033Z,936.75
2022-10-14T07:48:56.580Z,936.69
2022-10-14T07:49:46.065Z,936.73
2022-10-14T07:50:46.078Z,936.74
2022-10-14T07:51:46.099Z,936.76
2022-10-14T07:52:46.107Z,936.77
2022-10-14T07:53:46.123Z,936.82
2022-10-14T07:54:46.138Z,936.78
2022-10-14T07:55:46.152Z,936.84
2022-10-14T07:56:46.166Z,936.84
2022-10-14T07:57:46.182Z,936.86
2022-10-14T07:58:46.201Z,936.87
2022-10-14T07:59:46.215Z,936.88
2022-10-14T08:00:46.226Z,936.92
2022-10-14T08:01:46.339Z,936.93
2022-10-14T08:02:46.257Z,936.93
2022-10-14T08:03:46.273Z,936.94
2022-10-14T08:04:46.287Z,936.93
2022-10-14T08:05:46.303Z,936.94
2022-10-14T08:06:46.315Z,936.97
2022-10-14T08:07:46.331Z,936.99
2022-10-14T08:08:46.346Z,936.97
2022-10-14T08:09:46.364Z,937.00
2022-10-14T08:10:46.392Z,936.99
2022-10-14T08:11:46.390Z,937.03
2022-10-14T08:12:46.413Z,937.01
2022-10-14T08:13:46.605Z,937.03
2022-10-14T08:14:46.435Z,937.08
2022-10-14T08:15:46.451Z,937.09
2022-10-14T08:16:46.466Z,937.14
2022-10-14T08:17:46.501Z,937.15
2022-10-14T08:18:46.500Z,937.20
2022-10-14T08:19:46.510Z,937.19
2022-10-14T08:20:46.525Z,937.21
2022-10-14T08:21:46.541Z,937.21
2022-10-14T08:22:46.559Z,937.21
2022-10-14T08:23:46.568Z,937.20
2022-10-14T08:24:46.588Z,937.21
2022-10-14T08:25:46.599Z,937.27
2022-10-14T08:26:46.616Z,937.23
2022-10-14T08:27:46.630Z,937.24
2022-10-14T08:28:46.713Z,937.24
2022-10-14T08:29:46.658Z,937.26
2022-10-14T08:30:46.677Z,937.30
2022-10-14T08:31:46.689Z,937.28
2022-10-14T08:32:46.703Z,937.27
2022-10-14T08:33:46.735Z,937.26
2022-10-14T08:34:46.732Z,937.29
2022-10-14T08:35:50.327Z,937.27
2022-10-14T08:36:46.761Z,937.31
2022-10-14T08:37:46.778Z,937.29
2022-10-14T08:38:46.792Z,937.32
2022-10-14T08:39:46.806Z,937.32
2022-10-14T08:40:46.822Z,937.31
2022-10-14T08:41:46.839Z,937.35
2022-10-14T08:42:46.853Z,937.37
2022-10-14T08:43:46.868Z,937.37
2022-10-14T08:44:46.883Z,937.40
2022-10-14T08:45:46.898Z,937.41
2022-10-14T08:46:51.104Z,937.44
2022-10-14T08:47:46.925Z,937.43
2022-10-14T08:48:46.942Z,937.40
2022-10-14T08:49:46.974Z,937.42
2022-10-14T08:50:46.976Z,937.42
2022-10-14T08:51:46.987Z,937.42
2022-10-14T08:52:46.998Z,937.42
2022-10-14T08:53:47.016Z,937.43
2022-10-14T08:54:47.029Z,937.40
2022-10-14T08:55:47.045Z,937.44
2022-10-14T08:56:47.058Z,937.44
2022-10-14T08:57:47.074Z,937.44
2022-10-14T08:58:47.090Z,937.43
2022-10-14T08:59:47.102Z,937.43
2022-10-14T09:00:47.117Z,937.48
2022-10-14T09:01:47.132Z,937.44
2022-10-14T09:02:47.149Z,937.50
2022-10-14T09:03:47.227Z,937.48
2022-10-14T09:04:47.178Z,937.50
2022-10-14T09:05:47.212Z,937.47
2022-10-14T09:06:47.210Z,937.52
2022-10-14T09:07:47.259Z,937.48
2022-10-14T09:08:47.236Z,937.49
2022-10-14T09:09:47.252Z,937.56
2022-10-14T09:10:47.266Z,937.55
2022-10-14T09:11:47.282Z,937.59
2022-10-14T09:12:47.298Z,937.61
2022-10-14T09:13:47.318Z,937.63
2022-10-14T09:14:47.326Z,937.69
2022-10-14T09:15:47.342Z,937.70
2022-10-14T09:16:51.755Z,937.75
2022-10-14T09:17:47.386Z,937.78
2022-10-14T09:18:50.879Z,937.83
2022-10-14T09:19:47.402Z,937.82
2022-10-14T09:20:47.414Z,937.85
2022-10-14T09:21:52.547Z,937.84
2022-10-14T09:22:47.509Z,937.83
2022-10-14T09:23:47.457Z,937.87
2022-10-14T09:24:47.475Z,937.84
2022-10-14T09:25:47.488Z,937.89
2022-10-14T09:26:47.570Z,937.87
2022-10-14T09:28:47.608Z,937.86
2022-10-14T09:29:47.545Z,937.90
2022-10-14T09:30:47.562Z,937.93
2022-10-14T09:31:47.580Z,937.92
2022-10-14T09:32:47.592Z,937.93
2022-10-14T09:33:47.610Z,937.94
2022-10-14T09:34:47.622Z,937.92
2022-10-14T09:35:47.663Z,937.93
2022-10-14T09:36:47.673Z,937.92
2022-10-14T09:37:47.683Z,937.95
2022-10-14T09:38:47.681Z,937.98
2022-10-14T09:39:47.697Z,937.94
2022-10-14T09:40:47.709Z,937.98
2022-10-14T09:41:47.723Z,937.96
2022-10-14T09:42:47.738Z,937.94
2022-10-14T09:43:47.755Z,937.97
2022-10-14T09:44:47.768Z,937.95
2022-10-14T09:45:47.800Z,937.98
2022-10-14T09:46:47.801Z,937.98
2022-10-14T09:47:47.813Z,937.99
2022-10-14T09:48:47.826Z,938.01
2022-10-14T09:49:47.842Z,938.06
2022-10-14T09:50:47.855Z,938.09
2022-10-14T09:51:47.873Z,938.14
2022-10-14T09:52:47.886Z,938.14
2022-10-14T09:53:47.920Z,938.15
2022-10-14T09:54:47.916Z,938.16
2022-10-14T09:55:47.932Z,938.17
2022-10-14T09:56:47.946Z,938.22
2022-10-14T09:57:47.961Z,938.21
2022-10-14T09:58:47.979Z,938.25
2022-10-14T09:59:48.001Z,938.28
2022-10-14T10:00:48.005Z,938.30
2022-10-14T10:01:48.020Z,938.32
2022-10-14T10:02:48.036Z,938.31
2022-10-14T10:03:48.166Z,938.31
2022-10-14T10:04:48.097Z,938.35
2022-10-14T10:05:48.079Z,938.31
2022-10-14T10:06:48.091Z,938.31
2022-10-14T10:07:48.109Z,938.35
2022-10-14T10:08:48.122Z,938.36
2022-10-14T10:09:48.154Z,938.34
2022-10-14T10:10:48.150Z,938.38
2022-10-14T10:11:48.166Z,938.33
2022-10-14T10:12:48.185Z,938.38
2022-10-14T10:13:48.204Z,938.36
2022-10-14T10:14:48.210Z,938.45
2022-10-14T10:15:48.224Z,938.44
2022-10-14T10:16:48.352Z,938.48
2022-10-14T10:17:48.254Z,938.45
2022-10-14T10:18:48.268Z,938.51
2022-10-14T10:19:48.285Z,938.53
2022-10-14T10:20:48.298Z,938.55
2022-10-14T10:21:48.315Z,938.53
2022-10-14T10:22:48.328Z,938.54
2022-10-14T10:23:48.345Z,938.58
2022-10-14T10:24:48.357Z,938.58
2022-10-14T10:25:48.389Z,938.58
2022-10-14T10:26:48.389Z,938.61
2022-10-14T10:27:48.400Z,938.60
2022-10-14T10:28:48.486Z,938.65
2022-10-14T10:29:48.432Z,938.65
2022-10-14T10:30:48.444Z,938.62
2022-10-14T10:31:48.493Z,938.66
2022-10-14T10:32:48.475Z,938.62
2022-10-14T10:33:48.491Z,938.64
2022-10-14T10:34:48.505Z,938.62
2022-10-14T10:35:48.519Z,938.67
2022-10-14T10:36:48.532Z,938.62
2022-10-14T10:37:48.550Z,938.64
2022-10-14T10:38:48.564Z,938.65
2022-10-14T10:39:48.578Z,938.65
2022-10-14T10:40:48.596Z,938.66
2022-10-14T10:41:48.625Z,938.66
2022-10-14T10:42:48.625Z,938.66
2022-10-14T10:43:48.637Z,938.68
2022-10-14T10:44:48.671Z,938.65
2022-10-14T10:45:48.682Z,938.65
2022-10-14T10:46:48.703Z,938.64
2022-10-14T10:47:48.708Z,938.67
2022-10-14T10:48:48.723Z,938.68
2022-10-14T10:49:48.796Z,938.65
2022-10-14T10:50:48.759Z,938.65
2022-10-14T10:51:48.775Z,938.69
2022-10-14T10:52:48.788Z,938.69
2022-10-14T10:53:48.795Z,938.65
2022-10-14T10:54:48.810Z,938.71
2022-10-14T10:56:48.841Z,938.68
2022-10-14T10:57:48.874Z,938.71
2022-10-14T10:58:48.877Z,938.73
2022-10-14T10:59:48.886Z,938.73
2022-10-14T11:00:48.906Z,938.74
2022-10-14T11:01:48.960Z,938.71
2022-10-14T11:02:48.939Z,938.75
2022-10-14T11:03:48.945Z,938.71
2022-10-14T11:04:48.959Z,938.71
2022-10-14T11:05:48.981Z,938.73
2022-10-14T11:06:48.999Z,938.75
2022-10-14T11:07:49.011Z,938.72
2022-10-14T11:08:49.018Z,938.71
2022-10-14T11:09:49.034Z,938.74
2022-10-14T11:10:49.047Z,938.75
2022-10-14T11:11:49.064Z,938.77
2022-10-14T11:12:49.084Z,938.77
2022-10-14T11:13:49.116Z,938.76
2022-10-14T11:14:49.114Z,938.77
2022-10-14T11:15:49.122Z,938.77
2022-10-14T11:16:49.148Z,938.78
2022-10-14T11:17:49.158Z,938.83
2022-10-14T11:18:49.169Z,938.84
2022-10-14T11:19:49.180Z,938.82
2022-10-14T11:20:49.193Z,938.84
2022-10-14T11:21:49.210Z,938.82
2022-10-14T11:22:49.225Z,938.81
2022-10-14T11:23:49.242Z,938.81
2022-10-14T11:24:49.262Z,938.83
2022-10-14T11:25:49.280Z,938.87
2022-10-14T11:26:49.284Z,938.86
2022-10-14T11:27:49.304Z,938.87
2022-10-14T11:28:49.421Z,938.88
2022-10-14T11:29:49.334Z,938.93
2022-10-14T11:30:49.330Z,938.89
2022-10-14T11:31:49.347Z,938.95
2022-10-14T11:32:49.360Z,938.92
2022-10-14T11:33:49.375Z,938.95
2022-10-14T11:34:49.394Z,938.97
2022-10-14T11:35:49.404Z,938.97
2022-10-14T11:36:49.418Z,938.98
2022-10-14T11:37:49.433Z,938.99
2022-10-14T11:38:49.450Z,939.00
2022-10-14T11:39:49.464Z,939.00
2022-10-14T11:40:49.478Z,938.96
2022-10-14T11:41:49.493Z,938.93
2022-10-14T11:42:49.509Z,938.97
2022-10-14T11:43:49.527Z,938.96
2022-10-14T11:44:49.537Z,938.94
2022-10-14T11:45:49.569Z,938.93
2022-10-14T11:46:49.573Z,938.91
2022-10-14T11:47:49.581Z,938.91
2022-10-14T11:48:49.597Z,938.89
2022-10-14T11:49:49.613Z,938.88
2022-10-14T11:50:49.627Z,938.86
2022-10-14T11:51:49.639Z,938.89
2022-10-14T11:52:49.655Z,938.90
2022-10-14T11:53:49.671Z,938.88
2022-10-14T11:54:49.687Z,938.87
2022-10-14T11:55:49.700Z,938.92
2022-10-14T11:56:49.716Z,938.94
2022-10-14T11:57:49.728Z,938.92
2022-10-14T11:58:49.745Z,938.93
2022-10-14T11:59:49.759Z,938.96
2022-10-14T12:00:49.773Z,938.98
2022-10-14T12:01:49.813Z,939.00
2022-10-14T12:02:49.887Z,938.99
2022-10-14T12:03:49.818Z,938.99
2022-10-14T12:04:49.831Z,938.98
2022-10-14T12:05:49.848Z,938.96
2022-10-14T12:06:49.865Z,938.98
2022-10-14T12:07:49.879Z,938.93
2022-10-14T12:08:49.892Z,938.97
2022-10-14T12:09:49.907Z,938.93
2022-10-14T12:10:49.922Z,938.91
2022-10-14T12:11:49.938Z,938.93
2022-10-14T12:12:49.954Z,938.88
2022-10-14T12:13:49.968Z,938.90
2022-10-14T12:14:49.981Z,938.90
2022-10-14T12:15:49.997Z,938.89
2022-10-14T12:16:50.017Z,938.88
2022-10-14T12:17:50.098Z,938.90
2022-10-14T12:18:50.041Z,938.92
2022-10-14T12:19:50.055Z,938.88
2022-10-14T12:20:50.071Z,938.87
2022-10-14T12:21:50.857Z,938.83
2022-10-14T12:22:50.101Z,938.86
2022-10-14T12:23:50.114Z,938.84
2022-10-14T12:24:50.130Z,938.86
2022-10-14T12:25:50.143Z,938.85
2022-10-14T12:26:50.162Z,938.80
2022-10-14T12:27:50.183Z,938.80
2022-10-14T12:28:52.772Z,938.79
2022-10-14T12:29:50.208Z,938.80
2022-10-14T12:30:50.218Z,938.77
2022-10-14T12:31:50.236Z,938.83